createdAt,value
2022-10-31T00:00:43.011Z,84.77
2022-10-31T00:01:40.364Z,84.87
2022-10-31T00:02:37.200Z,84.84
2022-10-31T00:03:33.937Z,84.83
2022-10-31T00:04:30.783Z,85.87
2022-10-31T00:05:27.459Z,86.81
2022-10-31T00:06:25.607Z,86.47
2022-10-31T00:07:22.277Z,87.14
2022-10-31T00:08:20.026Z,87.64
2022-10-31T00:09:16.700Z,87.52
2022-10-31T00:10:13.428Z,87.69
2022-10-31T00:11:11.732Z,86.96
2022-10-31T00:12:08.400Z,86.79
2022-10-31T00:13:05.100Z,87.89
2022-10-31T00:14:01.975Z,87.61
2022-10-31T00:14:58.682Z,87.38
2022-10-31T00:15:55.364Z,86.90
2022-10-31T00:16:52.093Z,87.69
2022-10-31T00:17:48.789Z,88.33
2022-10-31T00:18:50.376Z,89.84
2022-10-31T00:19:47.136Z,90.51
2022-10-31T00:20:43.848Z,89.40
2022-10-31T00:21:40.755Z,88.80
2022-10-31T00:22:37.455Z,88.97
2022-10-31T00:23:34.146Z,88.27
2022-10-31T00:24:30.816Z,88.20
2022-10-31T00:25:29.509Z,87.44
2022-10-31T00:26:28.767Z,87.23
2022-10-31T00:27:25.470Z,86.55
2022-10-31T00:28:22.175Z,87.09
2022-10-31T00:29:18.857Z,87.33
2022-10-31T00:30:15.645Z,86.76
2022-10-31T00:31:13.714Z,87.50
2022-10-31T00:32:10.409Z,88.00
2022-10-31T00:33:07.182Z,89.07
2022-10-31T00:34:04.602Z,89.56
2022-10-31T00:35:01.327Z,88.63
2022-10-31T00:35:58.058Z,88.17
2022-10-31T00:36:54.797Z,87.91
2022-10-31T00:37:52.860Z,87.66
2022-10-31T00:38:50.308Z,88.09
2022-10-31T00:39:49.898Z,88.29
2022-10-31T00:40:46.634Z,87.55
2022-10-31T00:41:43.326Z,87.06
2022-10-31T00:42:42.507Z,85.93
2022-10-31T00:43:39.363Z,85.86
2022-10-31T00:44:35.993Z,85.34
2022-10-31T00:45:32.691Z,85.39
2022-10-31T00:46:29.390Z,85.59
2022-10-31T00:47:26.099Z,85.25
2022-10-31T00:48:22.805Z,84.46
2022-10-31T00:49:19.487Z,84.34
2022-10-31T00:50:16.221Z,83.93
2022-10-31T00:51:13.486Z,83.69
2022-10-31T00:52:10.178Z,84.11
2022-10-31T00:53:07.240Z,84.11
2022-10-31T00:54:04.007Z,83.17
2022-10-31T00:55:00.933Z,83.23
2022-10-31T00:55:57.603Z,83.13
2022-10-31T00:56:54.320Z,82.03
2022-10-31T00:57:50.977Z,82.62
2022-10-31T00:58:47.741Z,82.99
2022-10-31T00:59:44.455Z,82.94
2022-10-31T01:00:41.184Z,82.03
2022-10-31T01:01:37.953Z,82.68
2022-10-31T01:02:34.913Z,81.16
2022-10-31T01:03:33.900Z,81.16
2022-10-31T01:04:30.580Z,81.41
2022-10-31T01:05:27.477Z,81.59
2022-10-31T01:06:24.205Z,81.25
2022-10-31T01:07:20.854Z,81.24
2022-10-31T01:08:17.551Z,81.45
2022-10-31T01:09:14.229Z,81.50
2022-10-31T01:10:12.367Z,82.39
2022-10-31T01:11:13.506Z,82.79
2022-10-31T01:12:10.246Z,83.79
2022-10-31T01:13:06.916Z,83.13
2022-10-31T01:14:03.701Z,82.98
2022-10-31T01:15:00.364Z,83.97
2022-10-31T01:15:59.136Z,83.52
2022-10-31T01:16:56.004Z,84.48
2022-10-31T01:17:52.701Z,84.36
2022-10-31T01:18:49.589Z,84.95
2022-10-31T01:19:46.296Z,85.12
2022-10-31T01:20:42.960Z,84.40
2022-10-31T01:21:39.648Z,85.53
2022-10-31T01:22:36.357Z,84.87
2022-10-31T01:23:33.867Z,85.39
2022-10-31T01:24:30.558Z,85.04
2022-10-31T01:25:27.312Z,85.45
2022-10-31T01:26:30.897Z,86.97
2022-10-31T01:27:27.938Z,88.82
2022-10-31T01:29:26.260Z,88.61
2022-10-31T01:30:22.957Z,89.18
2022-10-31T01:31:22.097Z,90.07
2022-10-31T01:32:18.795Z,90.76
2022-10-31T01:33:15.476Z,90.69
2022-10-31T01:34:15.456Z,92.56
2022-10-31T01:35:12.136Z,91.63
2022-10-31T01:36:20.235Z,90.84
2022-10-31T01:37:17.224Z,90.57
2022-10-31T01:38:13.911Z,89.93
2022-10-31T01:39:13.147Z,89.15
2022-10-31T01:40:10.468Z,89.66
2022-10-31T01:41:07.408Z,89.37
2022-10-31T01:42:04.317Z,89.10
2022-10-31T01:43:01.412Z,89.36
2022-10-31T01:44:23.936Z,89.49
2022-10-31T01:45:21.078Z,89.88
2022-10-31T01:46:24.913Z,89.68
2022-10-31T01:47:41.380Z,89.52
2022-10-31T01:48:41.480Z,90.32
2022-10-31T01:49:54.476Z,88.24
2022-10-31T01:50:55.094Z,88.61
2022-10-31T01:51:58.734Z,88.34
2022-10-31T01:52:56.609Z,88.66
2022-10-31T01:54:01.595Z,89.38
2022-10-31T01:55:08.805Z,89.30
2022-10-31T01:56:06.141Z,89.93
2022-10-31T01:57:08.132Z,89.94
2022-10-31T01:58:33.949Z,90.61
2022-10-31T01:59:35.504Z,90.82
2022-10-31T02:00:32.407Z,89.98
2022-10-31T02:01:30.612Z,89.79
2022-10-31T02:02:31.329Z,90.14
2022-10-31T02:03:30.584Z,89.90
2022-10-31T02:04:29.024Z,90.09
2022-10-31T02:05:30.475Z,90.18
2022-10-31T02:06:38.807Z,91.47
2022-10-31T02:07:46.914Z,91.41
2022-10-31T02:08:44.805Z,91.37
2022-10-31T02:09:42.114Z,92.37
2022-10-31T02:10:39.108Z,92.63
2022-10-31T02:11:37.683Z,92.36
2022-10-31T02:12:39.286Z,92.09
2022-10-31T02:13:35.997Z,92.00
2022-10-31T02:14:32.907Z,92.40
2022-10-31T02:15:31.043Z,93.16
2022-10-31T02:16:27.782Z,93.30
2022-10-31T02:17:24.630Z,94.03
2022-10-31T02:18:23.733Z,93.39
2022-10-31T02:19:58.831Z,92.74
2022-10-31T02:21:10.762Z,92.38
2022-10-31T02:22:27.920Z,92.47
2022-10-31T02:23:40.281Z,91.01
2022-10-31T02:25:06.884Z,90.89
2022-10-31T02:26:38.785Z,90.75
2022-10-31T02:27:52.417Z,90.95
2022-10-31T02:28:51.696Z,91.88
2022-10-31T02:29:54.324Z,92.26
2022-10-31T02:31:30.544Z,91.98
2022-10-31T02:32:38.257Z,91.85
2022-10-31T02:33:49.668Z,91.43
2022-10-31T02:35:03.392Z,93.47
2022-10-31T02:36:13.875Z,94.13
2022-10-31T02:37:33.478Z,93.65
2022-10-31T02:38:42.441Z,95.27
2022-10-31T02:39:50.965Z,94.76
2022-10-31T02:41:05.303Z,95.42
2022-10-31T02:42:08.855Z,94.24
2022-10-31T02:43:36.277Z,94.75
2022-10-31T02:44:44.929Z,94.81
2022-10-31T02:45:59.602Z,95.76
2022-10-31T02:47:23.332Z,94.41
2022-10-31T02:48:26.384Z,96.73
2022-10-31T02:49:37.649Z,96.30
2022-10-31T02:50:40.257Z,94.98
2022-10-31T02:51:37.845Z,95.67
2022-10-31T02:52:36.766Z,97.14
2022-10-31T02:53:38.683Z,97.90
2022-10-31T02:54:35.441Z,96.93
2022-10-31T02:55:32.089Z,95.81
2022-10-31T02:56:28.770Z,95.45
2022-10-31T02:57:35.609Z,96.21
2022-10-31T02:58:39.649Z,96.85
2022-10-31T02:59:45.912Z,97.12
2022-10-31T03:01:09.007Z,98.24
2022-10-31T03:02:11.789Z,97.88
2022-10-31T03:03:20.473Z,97.88
2022-10-31T03:04:30.324Z,99.37
2022-10-31T03:05:38.843Z,98.29
2022-10-31T03:07:10.921Z,97.70
2022-10-31T03:08:14.389Z,99.60
2022-10-31T03:09:24.263Z,98.95
2022-10-31T03:10:42.823Z,98.70
2022-10-31T03:12:05.652Z,98.73
2022-10-31T03:14:39.032Z,100.00
2022-10-31T03:15:45.608Z,100.00
2022-10-31T03:16:49.921Z,100.00
2022-10-31T03:18:02.049Z,100.00
2022-10-31T03:19:08.821Z,100.00
2022-10-31T03:20:10.715Z,100.00
2022-10-31T03:21:21.364Z,100.00
2022-10-31T03:22:26.793Z,100.00
2022-10-31T03:23:26.708Z,100.00
2022-10-31T03:24:30.786Z,100.00
2022-10-31T03:25:28.826Z,100.00
2022-10-31T03:26:26.827Z,100.00
2022-10-31T03:27:28.760Z,100.00
2022-10-31T03:28:34.935Z,100.00
2022-10-31T03:29:37.574Z,100.00
2022-10-31T03:30:39.686Z,100.00
2022-10-31T03:31:56.513Z,100.00
2022-10-31T03:32:58.882Z,100.00
2022-10-31T03:34:01.087Z,100.00
2022-10-31T03:35:01.925Z,100.00
2022-10-31T03:36:03.827Z,100.00
2022-10-31T03:37:04.728Z,100.00
2022-10-31T03:38:05.519Z,100.00
2022-10-31T03:39:10.705Z,100.00
2022-10-31T03:40:10.869Z,100.00
2022-10-31T03:41:14.747Z,100.00
2022-10-31T03:42:16.896Z,100.00
2022-10-31T03:44:28.094Z,100.00
2022-10-31T03:45:32.041Z,100.00
2022-10-31T03:46:29.490Z,100.00
2022-10-31T03:47:27.322Z,100.00
2022-10-31T03:48:25.388Z,100.00
2022-10-31T03:49:22.835Z,100.00
2022-10-31T03:50:21.216Z,100.00
2022-10-31T03:51:41.148Z,100.00
2022-10-31T03:52:51.746Z,100.00
2022-10-31T03:53:57.549Z,100.00
2022-10-31T03:55:00.211Z,100.00
2022-10-31T03:56:35.243Z,100.00
2022-10-31T03:58:01.422Z,100.00
2022-10-31T03:59:01.065Z,100.00
2022-10-31T04:00:03.751Z,100.00
2022-10-31T04:01:04.632Z,100.00
2022-10-31T04:02:11.168Z,100.00
2022-10-31T04:03:14.092Z,100.00
2022-10-31T04:04:12.575Z,100.00
2022-10-31T04:05:13.383Z,100.00
2022-10-31T04:06:15.653Z,100.00
2022-10-31T04:07:15.878Z,100.00
2022-10-31T04:08:18.023Z,100.00
2022-10-31T04:09:17.407Z,100.00
2022-10-31T04:10:17.021Z,100.00
2022-10-31T04:11:18.788Z,100.00
2022-10-31T04:12:17.594Z,100.00
2022-10-31T04:14:26.255Z,100.00
2022-10-31T04:15:25.000Z,100.00
2022-10-31T04:16:24.200Z,100.00
2022-10-31T04:17:26.141Z,100.00
2022-10-31T04:18:26.329Z,100.00
2022-10-31T04:19:23.181Z,100.00
2022-10-31T04:20:29.881Z,100.00
2022-10-31T04:21:31.923Z,100.00
2022-10-31T04:22:28.810Z,100.00
2022-10-31T04:23:27.769Z,100.00
2022-10-31T04:24:24.444Z,100.00
2022-10-31T04:25:21.140Z,100.00
2022-10-31T04:26:17.826Z,100.00
2022-10-31T04:27:14.531Z,100.00
2022-10-31T04:28:11.239Z,100.00
2022-10-31T04:29:07.970Z,100.00
2022-10-31T04:30:05.247Z,100.00
2022-10-31T04:31:02.007Z,100.00
2022-10-31T04:31:58.767Z,100.00
2022-10-31T04:32:55.457Z,100.00
2022-10-31T04:33:52.140Z,100.00
2022-10-31T04:34:48.857Z,100.00
2022-10-31T04:35:46.446Z,100.00
2022-10-31T04:36:43.137Z,100.00
2022-10-31T04:37:39.858Z,100.00
2022-10-31T04:38:36.782Z,100.00
2022-10-31T04:39:33.438Z,100.00
2022-10-31T04:40:30.173Z,100.00
2022-10-31T04:41:26.867Z,100.00
2022-10-31T04:42:23.585Z,100.00
2022-10-31T04:44:21.877Z,100.00
2022-10-31T04:45:21.207Z,100.00
2022-10-31T04:46:18.311Z,100.00
2022-10-31T04:47:15.169Z,100.00
2022-10-31T04:48:11.858Z,100.00
2022-10-31T04:49:08.537Z,100.00
2022-10-31T04:50:05.639Z,100.00
2022-10-31T04:51:03.669Z,100.00
2022-10-31T04:52:00.349Z,100.00
2022-10-31T04:52:57.016Z,100.00
2022-10-31T04:53:53.721Z,100.00
2022-10-31T04:54:50.453Z,100.00
2022-10-31T04:55:47.331Z,100.00
2022-10-31T04:56:44.026Z,100.00
2022-10-31T04:57:45.944Z,100.00
2022-10-31T04:58:42.658Z,100.00
2022-10-31T04:59:39.411Z,100.00
2022-10-31T05:00:36.113Z,100.00
2022-10-31T05:01:32.894Z,100.00
2022-10-31T05:02:29.682Z,100.00
2022-10-31T05:03:26.492Z,100.00
2022-10-31T05:04:23.628Z,100.00
2022-10-31T05:05:25.677Z,100.00
2022-10-31T05:06:22.377Z,100.00
2022-10-31T05:07:19.085Z,100.00
2022-10-31T05:08:16.050Z,100.00
2022-10-31T05:09:12.769Z,100.00
2022-10-31T05:10:19.301Z,100.00
2022-10-31T05:11:16.068Z,100.00
2022-10-31T05:12:12.826Z,100.00
2022-10-31T05:13:09.824Z,100.00
2022-10-31T05:14:06.560Z,100.00
2022-10-31T05:15:03.865Z,100.00
2022-10-31T05:16:00.582Z,100.00
2022-10-31T05:16:57.271Z,100.00
2022-10-31T05:17:55.210Z,100.00
2022-10-31T05:18:51.884Z,100.00
2022-10-31T05:19:48.591Z,100.00
2022-10-31T05:20:45.271Z,100.00
2022-10-31T05:21:41.965Z,100.00
2022-10-31T05:22:46.555Z,100.00
2022-10-31T05:23:47.461Z,100.00
2022-10-31T05:24:45.265Z,100.00
2022-10-31T05:25:42.276Z,100.00
2022-10-31T05:26:38.994Z,100.00
2022-10-31T05:27:35.713Z,100.00
2022-10-31T05:28:32.437Z,100.00
2022-10-31T05:29:29.218Z,100.00
2022-10-31T05:30:29.717Z,100.00
2022-10-31T05:31:26.387Z,100.00
2022-10-31T05:32:23.121Z,100.00
2022-10-31T05:33:19.871Z,100.00
2022-10-31T05:34:16.614Z,100.00
2022-10-31T05:35:16.325Z,100.00
2022-10-31T05:36:13.056Z,100.00
2022-10-31T05:37:09.876Z,100.00
2022-10-31T05:38:06.545Z,100.00
2022-10-31T05:39:03.830Z,100.00
2022-10-31T05:40:05.313Z,100.00
2022-10-31T05:41:05.049Z,100.00
2022-10-31T05:42:01.726Z,100.00
2022-10-31T05:43:01.679Z,100.00
2022-10-31T05:43:58.558Z,100.00
2022-10-31T05:44:55.268Z,100.00
2022-10-31T05:45:56.396Z,100.00
2022-10-31T05:46:53.097Z,100.00
2022-10-31T05:47:52.826Z,100.00
2022-10-31T05:48:49.584Z,100.00
2022-10-31T05:49:46.304Z,100.00
2022-10-31T05:50:43.065Z,100.00
2022-10-31T05:51:39.791Z,100.00
2022-10-31T05:52:37.154Z,100.00
2022-10-31T05:53:33.854Z,100.00
2022-10-31T05:54:30.549Z,100.00
2022-10-31T05:55:28.542Z,100.00
2022-10-31T05:56:25.252Z,100.00
2022-10-31T05:57:22.019Z,100.00
2022-10-31T05:58:18.758Z,100.00
2022-10-31T05:59:15.480Z,100.00
2022-10-31T06:00:12.794Z,100.00
2022-10-31T06:01:09.563Z,100.00
2022-10-31T06:02:06.292Z,100.00
2022-10-31T06:03:06.110Z,100.00
2022-10-31T06:04:02.918Z,100.00
2022-10-31T06:04:59.673Z,100.00
2022-10-31T06:05:56.554Z,100.00
2022-10-31T06:06:53.323Z,100.00
2022-10-31T06:07:50.000Z,100.00
2022-10-31T06:08:46.683Z,100.00
2022-10-31T06:09:43.436Z,100.00
2022-10-31T06:10:40.143Z,100.00
2022-10-31T06:11:36.823Z,100.00
2022-10-31T06:12:38.428Z,100.00
2022-10-31T06:13:35.113Z,100.00
2022-10-31T06:14:31.864Z,100.00
2022-10-31T06:15:28.609Z,100.00
2022-10-31T06:16:25.340Z,100.00
2022-10-31T06:17:22.032Z,100.00
2022-10-31T06:18:18.717Z,100.00
2022-10-31T06:19:15.467Z,100.00
2022-10-31T06:20:12.740Z,100.00
2022-10-31T06:21:10.771Z,100.00
2022-10-31T06:22:09.281Z,100.00
2022-10-31T06:23:06.186Z,100.00
2022-10-31T06:24:03.033Z,100.00
2022-10-31T06:25:00.026Z,100.00
2022-10-31T06:25:56.731Z,100.00
2022-10-31T06:26:53.415Z,100.00
2022-10-31T06:27:50.196Z,100.00
2022-10-31T06:28:46.896Z,100.00
2022-10-31T06:29:43.669Z,100.00
2022-10-31T06:30:40.414Z,100.00
2022-10-31T06:31:37.125Z,100.00
2022-10-31T06:32:33.806Z,100.00
2022-10-31T06:33:30.544Z,100.00
2022-10-31T06:34:27.291Z,100.00
2022-10-31T06:35:23.992Z,100.00
2022-10-31T06:36:20.766Z,100.00
2022-10-31T06:37:17.568Z,100.00
2022-10-31T06:38:15.017Z,100.00
2022-10-31T06:39:11.706Z,100.00
2022-10-31T06:40:08.913Z,100.00
2022-10-31T06:41:06.981Z,100.00
2022-10-31T06:42:04.888Z,100.00
2022-10-31T06:43:02.501Z,100.00
2022-10-31T06:44:00.576Z,100.00
2022-10-31T06:44:58.946Z,100.00
2022-10-31T06:45:55.617Z,100.00
2022-10-31T06:46:52.301Z,100.00
2022-10-31T06:48:15.601Z,100.00
2022-10-31T06:49:10.788Z,100.00
2022-10-31T06:50:07.900Z,100.00
2022-10-31T06:51:04.659Z,100.00
2022-10-31T06:52:01.477Z,100.00
2022-10-31T06:52:59.888Z,100.00
2022-10-31T06:53:56.623Z,100.00
2022-10-31T06:54:53.328Z,100.00
2022-10-31T06:55:50.135Z,100.00
2022-10-31T06:56:48.339Z,100.00
2022-10-31T06:57:51.487Z,100.00
2022-10-31T06:58:48.461Z,100.00
2022-10-31T06:59:45.190Z,100.00
2022-10-31T07:00:42.037Z,100.00
2022-10-31T07:01:38.843Z,100.00
2022-10-31T07:02:35.663Z,100.00
2022-10-31T07:03:32.500Z,100.00
2022-10-31T07:04:29.185Z,100.00
2022-10-31T07:05:27.092Z,100.00
2022-10-31T07:06:23.825Z,100.00
2022-10-31T07:07:22.271Z,100.00
2022-10-31T07:08:18.979Z,100.00
2022-10-31T07:09:15.653Z,100.00
2022-10-31T07:11:14.045Z,100.00
2022-10-31T07:12:10.766Z,100.00
2022-10-31T07:13:13.155Z,100.00
2022-10-31T07:14:09.893Z,100.00
2022-10-31T07:15:07.100Z,100.00
2022-10-31T07:16:07.606Z,100.00
2022-10-31T07:17:04.393Z,100.00
2022-10-31T07:18:05.063Z,100.00
2022-10-31T07:19:01.814Z,100.00
2022-10-31T07:19:58.509Z,100.00
2022-10-31T07:20:55.743Z,100.00
2022-10-31T07:21:52.419Z,100.00
2022-10-31T07:22:59.011Z,100.00
2022-10-31T07:23:55.799Z,100.00
2022-10-31T07:24:52.482Z,100.00
2022-10-31T07:25:49.202Z,100.00
2022-10-31T07:26:48.399Z,100.00
2022-10-31T07:27:45.215Z,100.00
2022-10-31T07:28:41.899Z,100.00
2022-10-31T07:29:38.590Z,100.00
2022-10-31T07:30:35.335Z,100.00
2022-10-31T07:31:32.058Z,100.00
2022-10-31T07:32:28.756Z,100.00
2022-10-31T07:33:29.088Z,100.00
2022-10-31T07:34:25.808Z,100.00
2022-10-31T07:35:25.008Z,100.00
2022-10-31T07:36:21.698Z,100.00
2022-10-31T07:37:18.389Z,100.00
2022-10-31T07:38:16.231Z,100.00
2022-10-31T07:39:13.088Z,100.00
2022-10-31T07:40:10.706Z,100.00
2022-10-31T07:41:07.451Z,100.00
2022-10-31T07:42:04.227Z,100.00
2022-10-31T07:43:00.932Z,100.00
2022-10-31T07:43:57.656Z,100.00
2022-10-31T07:44:56.839Z,100.00
2022-10-31T07:45:55.005Z,100.00
2022-10-31T07:46:51.775Z,100.00
2022-10-31T07:47:53.368Z,100.00
2022-10-31T07:48:50.068Z,100.00
2022-10-31T07:49:46.815Z,100.00
2022-10-31T07:50:43.617Z,100.00
2022-10-31T07:51:45.548Z,100.00
2022-10-31T07:52:43.477Z,100.00
2022-10-31T07:53:58.703Z,100.00
2022-10-31T07:54:55.392Z,100.00
2022-10-31T07:55:52.123Z,100.00
2022-10-31T07:56:48.836Z,100.00
2022-10-31T07:57:45.546Z,100.00
2022-10-31T07:58:42.288Z,100.00
2022-10-31T07:59:39.045Z,100.00
2022-10-31T08:00:38.147Z,100.00
2022-10-31T08:01:34.917Z,100.00
2022-10-31T08:02:31.702Z,100.00
2022-10-31T08:03:28.455Z,100.00
2022-10-31T08:04:25.145Z,100.00
2022-10-31T08:05:21.846Z,100.00
2022-10-31T08:06:18.582Z,100.00
2022-10-31T08:07:15.328Z,100.00
2022-10-31T08:08:12.415Z,100.00
2022-10-31T08:09:09.164Z,100.00
2022-10-31T08:10:06.589Z,100.00
2022-10-31T08:11:03.478Z,100.00
2022-10-31T08:12:00.275Z,100.00
2022-10-31T08:12:57.750Z,100.00
2022-10-31T08:13:54.489Z,100.00
2022-10-31T08:14:51.428Z,100.00
2022-10-31T08:15:51.344Z,100.00
2022-10-31T08:16:48.026Z,100.00
2022-10-31T08:17:44.701Z,100.00
2022-10-31T08:18:41.483Z,100.00
2022-10-31T08:19:38.205Z,100.00
2022-10-31T08:20:34.952Z,100.00
2022-10-31T08:21:32.016Z,100.00
2022-10-31T08:22:28.778Z,100.00
2022-10-31T08:23:25.544Z,100.00
2022-10-31T08:24:22.934Z,100.00
2022-10-31T08:25:19.578Z,100.00
2022-10-31T08:26:16.268Z,100.00
2022-10-31T08:27:13.075Z,100.00
2022-10-31T08:28:12.716Z,100.00
2022-10-31T08:29:09.790Z,100.00
2022-10-31T08:30:07.257Z,100.00
2022-10-31T08:31:04.087Z,100.00
2022-10-31T08:32:00.825Z,100.00
2022-10-31T08:33:06.044Z,100.00
2022-10-31T08:34:03.412Z,100.00
2022-10-31T08:35:00.112Z,100.00
2022-10-31T08:35:59.057Z,100.00
2022-10-31T08:36:55.785Z,100.00
2022-10-31T08:37:58.758Z,100.00
2022-10-31T08:39:01.436Z,100.00
2022-10-31T08:39:58.696Z,100.00
2022-10-31T08:40:55.413Z,100.00
2022-10-31T08:41:52.115Z,100.00
2022-10-31T08:42:48.839Z,100.00
2022-10-31T08:43:45.625Z,100.00
2022-10-31T08:44:42.368Z,99.70
2022-10-31T08:45:39.109Z,98.55
2022-10-31T08:46:36.853Z,98.87
2022-10-31T08:47:33.573Z,98.68
2022-10-31T08:48:30.421Z,97.65
2022-10-31T08:49:27.155Z,96.75
2022-10-31T08:50:24.017Z,97.48
2022-10-31T08:51:20.819Z,96.03
2022-10-31T08:52:17.517Z,95.75
2022-10-31T08:53:17.490Z,96.60
2022-10-31T08:54:14.225Z,96.28
2022-10-31T08:55:10.892Z,95.13
2022-10-31T08:56:07.906Z,95.58
2022-10-31T08:57:05.124Z,95.76
2022-10-31T08:58:03.745Z,95.43
2022-10-31T08:59:00.863Z,96.28
2022-10-31T08:59:57.637Z,94.87
2022-10-31T09:00:57.354Z,94.91
2022-10-31T09:01:54.284Z,94.58
2022-10-31T09:02:58.794Z,93.76
2022-10-31T09:03:55.508Z,92.87
2022-10-31T09:04:52.229Z,92.62
2022-10-31T09:05:49.843Z,92.25
2022-10-31T09:07:08.019Z,92.38
2022-10-31T09:08:06.184Z,93.15
2022-10-31T09:09:02.949Z,91.59
2022-10-31T09:09:59.684Z,90.69
2022-10-31T09:10:58.723Z,89.69
2022-10-31T09:11:55.505Z,89.19
2022-10-31T09:13:16.065Z,89.19
2022-10-31T09:14:12.836Z,89.54
2022-10-31T09:15:10.238Z,88.87
2022-10-31T09:16:07.304Z,86.77
2022-10-31T09:17:04.097Z,86.61
2022-10-31T09:18:01.951Z,86.15
2022-10-31T09:18:58.863Z,85.98
2022-10-31T09:19:55.927Z,85.37
2022-10-31T09:20:52.654Z,84.76
2022-10-31T09:21:53.480Z,85.59
2022-10-31T09:22:58.045Z,86.46
2022-10-31T09:23:54.943Z,86.99
2022-10-31T09:24:51.643Z,85.49
2022-10-31T09:25:51.131Z,84.40
2022-10-31T09:26:48.012Z,84.82
2022-10-31T09:27:44.759Z,83.87
2022-10-31T09:28:41.432Z,83.50
2022-10-31T09:29:38.136Z,81.00
2022-10-31T09:30:36.408Z,81.01
2022-10-31T09:31:33.137Z,81.11
2022-10-31T09:32:29.839Z,80.68
2022-10-31T09:33:26.600Z,79.52
2022-10-31T09:34:23.761Z,78.99
2022-10-31T09:35:23.149Z,79.22
2022-10-31T09:36:22.360Z,78.89
2022-10-31T09:37:19.083Z,78.30
2022-10-31T09:38:20.173Z,78.29
2022-10-31T09:39:16.940Z,77.68
2022-10-31T09:40:13.951Z,77.97
2022-10-31T09:41:25.080Z,77.52
2022-10-31T09:42:40.962Z,77.48
2022-10-31T09:43:56.177Z,77.67
2022-10-31T09:45:38.325Z,77.43
2022-10-31T09:46:58.183Z,76.34
2022-10-31T09:48:28.134Z,75.62
2022-10-31T09:49:43.773Z,75.74
2022-10-31T09:51:24.204Z,75.46
2022-10-31T09:52:32.211Z,75.75
2022-10-31T09:53:41.112Z,75.04
2022-10-31T09:54:54.191Z,73.73
2022-10-31T09:55:54.030Z,73.77
2022-10-31T09:56:51.092Z,74.74
2022-10-31T09:57:49.374Z,74.47
2022-10-31T09:58:48.771Z,73.71
2022-10-31T09:59:50.345Z,73.45
2022-10-31T10:00:49.303Z,73.57
2022-10-31T10:02:09.233Z,73.11
2022-10-31T10:03:31.229Z,71.94
2022-10-31T10:04:44.589Z,72.07
2022-10-31T10:06:10.316Z,72.70
2022-10-31T10:07:40.555Z,72.16
2022-10-31T10:08:37.564Z,71.01
2022-10-31T10:09:34.352Z,71.44
2022-10-31T10:10:39.791Z,71.13
2022-10-31T10:11:45.596Z,69.85
2022-10-31T10:12:59.418Z,68.99
2022-10-31T10:14:20.755Z,68.88
2022-10-31T10:15:32.877Z,68.74
2022-10-31T10:16:36.403Z,67.52
2022-10-31T10:17:35.982Z,67.51
2022-10-31T10:18:50.469Z,67.63
2022-10-31T10:19:49.937Z,66.27
2022-10-31T10:21:00.559Z,66.51
2022-10-31T10:21:57.205Z,66.42
2022-10-31T10:23:00.503Z,67.30
2022-10-31T10:24:42.124Z,66.42
2022-10-31T10:25:40.948Z,67.35
2022-10-31T10:26:41.497Z,67.59
2022-10-31T10:27:57.860Z,66.09
2022-10-31T10:29:02.381Z,66.15
2022-10-31T10:30:16.149Z,64.31
2022-10-31T10:31:17.525Z,62.58
2022-10-31T10:32:24.434Z,62.42
2022-10-31T10:33:36.339Z,62.12
2022-10-31T10:34:45.383Z,61.61
2022-10-31T10:36:05.614Z,61.51
2022-10-31T10:37:27.944Z,62.78
2022-10-31T10:38:45.585Z,60.83
2022-10-31T10:39:48.474Z,60.66
2022-10-31T10:40:46.681Z,59.98
2022-10-31T10:42:09.179Z,60.95
2022-10-31T10:43:24.165Z,61.77
2022-10-31T10:44:21.116Z,60.97
2022-10-31T10:45:39.332Z,61.85
2022-10-31T10:47:07.249Z,60.76
2022-10-31T10:48:42.539Z,60.29
2022-10-31T10:49:53.203Z,60.23
2022-10-31T10:50:53.420Z,60.51
2022-10-31T10:52:19.546Z,60.57
2022-10-31T10:54:06.539Z,58.74
2022-10-31T10:55:16.219Z,60.16
2022-10-31T10:56:22.597Z,59.49
2022-10-31T10:57:43.372Z,60.31
2022-10-31T10:58:43.572Z,59.39
2022-10-31T10:59:40.492Z,59.55
2022-10-31T11:00:44.189Z,59.55
2022-10-31T11:01:43.122Z,58.95
2022-10-31T11:02:41.209Z,58.17
2022-10-31T11:03:42.459Z,58.94
2022-10-31T11:04:42.017Z,58.00
2022-10-31T11:05:52.509Z,56.92
2022-10-31T11:07:02.121Z,56.76
2022-10-31T11:07:58.899Z,57.03
2022-10-31T11:08:55.640Z,57.26
2022-10-31T11:10:03.181Z,57.22
2022-10-31T11:11:20.464Z,57.19
2022-10-31T11:12:34.479Z,57.79
2022-10-31T11:13:33.869Z,58.23
2022-10-31T11:14:30.667Z,57.21
2022-10-31T11:15:29.083Z,57.34
2022-10-31T11:16:25.826Z,57.32
2022-10-31T11:17:35.256Z,57.41
2022-10-31T11:18:35.868Z,56.72
2022-10-31T11:19:32.723Z,57.24
2022-10-31T11:20:35.521Z,57.29
2022-10-31T11:21:34.451Z,56.89
2022-10-31T11:22:31.506Z,56.85
2022-10-31T11:23:29.887Z,56.75
2022-10-31T11:24:28.478Z,57.32
2022-10-31T11:25:27.752Z,56.95
2022-10-31T11:26:24.427Z,56.83
2022-10-31T11:27:23.393Z,56.85
2022-10-31T11:28:20.093Z,57.13
2022-10-31T11:29:21.256Z,56.76
2022-10-31T11:30:17.967Z,56.31
2022-10-31T11:31:17.252Z,56.20
2022-10-31T11:32:25.707Z,55.51
2022-10-31T11:33:54.600Z,56.33
2022-10-31T11:34:57.766Z,55.05
2022-10-31T11:35:58.039Z,55.35
2022-10-31T11:37:02.874Z,55.23
2022-10-31T11:38:03.441Z,54.78
2022-10-31T11:39:04.080Z,54.89
2022-10-31T11:40:06.306Z,55.18
2022-10-31T11:41:12.063Z,55.25
2022-10-31T11:42:09.263Z,55.25
2022-10-31T11:43:06.010Z,54.60
2022-10-31T11:44:12.995Z,54.53
2022-10-31T11:45:32.105Z,54.15
2022-10-31T11:46:34.889Z,54.82
2022-10-31T11:47:37.796Z,55.21
2022-10-31T11:48:34.622Z,55.21
2022-10-31T11:49:37.476Z,55.20
2022-10-31T11:50:40.553Z,55.12
2022-10-31T11:51:38.629Z,55.00
2022-10-31T11:52:41.007Z,55.34
2022-10-31T11:53:37.782Z,55.02
2022-10-31T11:54:51.998Z,54.90
2022-10-31T11:56:15.073Z,54.79
2022-10-31T11:57:26.618Z,55.79
2022-10-31T11:58:27.570Z,55.70
2022-10-31T11:59:29.092Z,56.03
2022-10-31T12:00:34.964Z,54.80
2022-10-31T12:01:34.056Z,55.21
2022-10-31T12:02:31.743Z,55.24
2022-10-31T12:03:44.616Z,55.45
2022-10-31T12:04:52.431Z,55.28
2022-10-31T12:06:06.082Z,55.25
2022-10-31T12:07:03.264Z,55.58
2022-10-31T12:08:04.291Z,55.26
2022-10-31T12:09:01.743Z,54.39
2022-10-31T12:09:58.719Z,54.38
2022-10-31T12:11:05.685Z,54.38
2022-10-31T12:12:24.860Z,54.84
2022-10-31T12:13:40.310Z,53.47
2022-10-31T12:14:58.370Z,54.17
2022-10-31T12:16:07.119Z,53.85
2022-10-31T12:17:17.919Z,53.68
2022-10-31T12:18:23.416Z,53.86
2022-10-31T12:19:37.077Z,53.47
2022-10-31T12:21:10.416Z,54.12
2022-10-31T12:22:19.265Z,53.70
2022-10-31T12:23:51.128Z,53.99
2022-10-31T12:25:05.864Z,53.88
2022-10-31T12:26:05.608Z,54.07
2022-10-31T12:27:10.028Z,54.16
2022-10-31T12:28:06.817Z,55.19
2022-10-31T12:29:18.783Z,54.46
2022-10-31T12:30:52.117Z,54.32
2022-10-31T12:32:22.302Z,54.81
2022-10-31T12:33:46.696Z,54.39
2022-10-31T12:35:20.610Z,54.27
2022-10-31T12:36:45.094Z,54.30
2022-10-31T12:37:53.828Z,54.66
2022-10-31T12:39:14.212Z,54.61
2022-10-31T12:40:26.123Z,54.55
2022-10-31T12:41:48.603Z,54.60
2022-10-31T12:43:04.401Z,54.87
2022-10-31T12:44:22.585Z,54.24
2022-10-31T12:45:46.033Z,53.93
2022-10-31T12:47:01.532Z,53.64
2022-10-31T12:48:19.657Z,52.86
2022-10-31T12:49:32.241Z,53.10
2022-10-31T12:50:51.845Z,52.59
2022-10-31T12:52:19.840Z,52.29
2022-10-31T12:53:28.822Z,52.08
2022-10-31T12:54:47.032Z,53.09
2022-10-31T12:56:03.231Z,53.59
2022-10-31T12:57:15.963Z,53.23
2022-10-31T12:58:30.330Z,53.39
2022-10-31T12:59:46.429Z,52.66
2022-10-31T13:00:49.829Z,53.00
2022-10-31T13:02:05.719Z,52.40
2022-10-31T13:03:50.508Z,52.78
2022-10-31T13:04:58.983Z,53.10
2022-10-31T13:06:03.501Z,52.57
2022-10-31T13:07:09.321Z,52.61
2022-10-31T13:08:08.336Z,52.39
2022-10-31T13:09:16.225Z,53.01
2022-10-31T13:10:29.545Z,52.91
2022-10-31T13:11:33.449Z,52.71
2022-10-31T13:12:37.384Z,52.85
2022-10-31T13:13:46.443Z,52.16
2022-10-31T13:15:02.463Z,52.00